Flight Track Log - Related Links

Times and Time Zones

All times are in EDT time to prevent confusion due to time zone crossing. See the N224RW flight status page for this flight to view local times or setup timezone preferences in your user account.

Time Position Orientation Groundspeed Altitude Reporting Facility
EDT Latitude Longitude Course Direction KTS MPH feet Rate Location/Type
Mon 04:45:38 PM 39.0833 -84.4167 218° Southwest 85 98 1,200  Level Cincinnati TRACON
Mon 04:46:44 PM 39.0667 -84.4333 218° Southwest 106 122 2,200 727 Climbing Cincinnati TRACON
Mon 04:47:17 PM 39.0444 -84.4403 194° South 93 107 2,400 191 Climbing Indianapolis Center
Mon 04:48:18 PM 39.0222 -84.4067 130° Southeast 124 143 2,500 390 Climbing Indianapolis Center
Mon 04:49:20 PM 39.0508 -84.3561 54° Northeast 157 181 3,200 677 Climbing Indianapolis Center
Mon 04:50:22 PM 39.0836 -84.3119 46° Northeast 158 182 3,900 212 Climbing Indianapolis Center
Mon 04:52:38 PM 39.1500 -84.4500 302° West 165 190 3,900  Level Cincinnati TRACON
Mon 04:53:44 PM 39.1833 -84.5000 311° West 168 193 3,900  Level Cincinnati TRACON
Mon 04:54:38 PM 39.2167 -84.5333 322° Northwest 167 192 3,900  Level Cincinnati TRACON
Mon 04:55:38 PM 39.2500 -84.5833 311° West 167 192 3,900  Level Cincinnati TRACON
Mon 04:56:32 PM 39.2667 -84.6333 293° West 164 189 3,900  Level Cincinnati TRACON
Mon 04:57:38 PM 39.3000 -84.6667 322° Northwest 165 190 3,900  Level Cincinnati TRACON
Mon 04:58:38 PM 39.3333 -84.7167 311° West 167 192 3,900  Level Cincinnati TRACON
Mon 04:59:37 PM 39.3611 -84.7594 310° West 155 178 3,900  Level Indianapolis Center
Mon 05:00:39 PM 39.3881 -84.8061 307° West 161 185 3,900  Level Indianapolis Center
Mon 05:01:41 PM 39.4269 -84.8597 313° West 167 192 3,900  Level Indianapolis Center
Mon 05:02:42 PM 39.4572 -84.9072 310° West 169 194 3,900  Level Indianapolis Center
Mon 05:03:44 PM 39.4872 -84.9522 311° West 168 193 3,900  Level Indianapolis Center
Mon 05:04:46 PM 39.5175 -84.9958 312° West 166 191 3,900  Level Indianapolis Center
Mon 05:05:48 PM 39.5469 -85.0414 310° West 164 189 3,900  Level Indianapolis Center
Mon 05:06:49 PM 39.5742 -85.0864 308° West 162 186 3,900  Level Indianapolis Center
Mon 05:07:51 PM 39.6114 -85.1408 312° West 165 190 3,900  Level Indianapolis Center
Mon 05:08:53 PM 39.6414 -85.1850 311° West 165 190 3,900  Level Indianapolis Center
Mon 05:09:55 PM 39.6697 -85.2294 310° West 164 189 3,900  Level Indianapolis Center
Mon 05:10:56 PM 39.6986 -85.2747 310° West 163 188 3,900 49 Level Indianapolis Center
Mon 05:11:58 PM 39.7286 -85.3197 311° West 164 189 4,000 48 Climbing Indianapolis Center
Mon 05:13:00 PM 39.7578 -85.3650 310° West 165 190 4,000  Level Indianapolis Center
Mon 05:14:02 PM 39.7922 -85.4183 310° West 163 188 4,000  Level Indianapolis Center
Mon 05:15:03 PM 39.8203 -85.4617 310° West 160 184 4,000  Level Indianapolis Center
Mon 05:16:05 PM 39.8486 -85.5072 309° West 161 185 4,000  Level Indianapolis Center
Mon 05:17:07 PM 39.8769 -85.5508 310° West 160 184 4,000  Level Indianapolis Center
Mon 05:18:09 PM 39.9056 -85.5944 311° West 159 183 4,000  Level Indianapolis Center
Mon 05:19:10 PM 39.9331 -85.6378 310° West 158 182 4,000  Level Indianapolis Center
Mon 05:20:12 PM 39.9608 -85.6811 310° West 157 181 4,000  Level Indianapolis Center
Mon 05:21:14 PM 39.9947 -85.7344 310° West 158 182 4,000  Level Indianapolis Center
Mon 05:22:15 PM 40.0231 -85.7781 310° West 159 183 4,000  Level Indianapolis Center
Mon 05:23:16 PM 40.0514 -85.8231 309° West 160 184 4,000  Level Indianapolis Center
Mon 05:24:18 PM 40.0806 -85.8672 311° West 160 184 4,000  Level Indianapolis Center
Mon 05:25:20 PM 40.1092 -85.9139 309° West 163 188 4,000  Level Indianapolis Center
Mon 05:26:21 PM 40.1392 -85.9600 310° West 165 190 4,000  Level Indianapolis Center
Mon 05:26:51 PM 40.1578 -85.9869 312° West 166 191 4,000  Level Chicago Center
Mon 05:27:33 PM 40.1797 -86.0228 309° West 167 192 4,000  Level Chicago Center
Mon 05:28:34 PM 40.2097 -86.0706 309° West 165 190 4,000  Level Chicago Center
Mon 05:29:34 PM 40.2375 -86.1158 309° West 163 188 4,000  Level Chicago Center
Mon 05:30:35 PM 40.2672 -86.1608 311° West 158 182 4,000  Level Chicago Center
Mon 05:31:36 PM 40.2950 -86.2061 309° West 160 184 4,000  Level Chicago Center
Mon 05:32:36 PM 40.3247 -86.2514 311° West 160 184 4,000  Level Chicago Center
Mon 05:33:37 PM 40.3506 -86.2964 307° West 159 183 4,000  Level Chicago Center
Mon 05:34:38 PM 40.3803 -86.3417 311° West 161 185 4,000  Level Chicago Center
Mon 05:35:08 PM 40.3944 -86.3606 315° West 160 184 4,000  Level Chicago Center
Mon 05:35:38 PM 40.4081 -86.3869 304° West 160 184 4,000  Level Chicago Center
Mon 05:36:10 PM 40.4253 -86.4100 314° West 160 184 4,000  Level Chicago Center
Mon 05:37:12 PM 40.4528 -86.4553 309° West 159 183 4,000  Level Chicago Center
Mon 05:38:14 PM 40.4800 -86.5008 308° West 159 183 4,000  Level Chicago Center
Mon 05:39:16 PM 40.5089 -86.5456 310° West 160 184 4,000  Level Chicago Center
Mon 05:40:41 PM 40.5522 -86.6144 310° West 160 184 4,000  Level Chicago Center
Mon 05:41:20 PM 40.5711 -86.6436 310° West 160 184 4,000  Level Chicago Center
Mon 05:42:22 PM 40.5986 -86.6886 309° West 159 183 4,000  Level Chicago Center
Mon 05:43:25 PM 40.6256 -86.7344 308° West 159 183 4,000  Level Chicago Center
Mon 05:44:27 PM 40.6542 -86.7792 310° West 159 183 4,000  Level Chicago Center
Mon 05:45:29 PM 40.6861 -86.8297 310° West 159 183 4,000  Level Chicago Center
Mon 05:46:31 PM 40.7167 -86.8756 311° West 151 174 4,000  Level Chicago Center
Mon 05:47:33 PM 40.7439 -86.9206 309° West 158 182 4,000  Level Chicago Center
Mon 05:48:35 PM 40.7714 -86.9658 309° West 159 183 4,000  Level Chicago Center
Mon 05:49:37 PM 40.7997 -87.0125 309° West 161 185 4,000  Level Chicago Center
Mon 05:50:39 PM 40.8283 -87.0572 310° West 161 185 4,000  Level Chicago Center
Mon 05:51:41 PM 40.8606 -87.1114 308° West 159 183 4,000  Level Chicago Center
Mon 05:52:43 PM 40.8872 -87.1567 308° West 158 182 4,000  Level Chicago Center
Mon 05:53:45 PM 40.9153 -87.2003 310° West 157 181 4,000  Level Chicago Center
Mon 05:54:48 PM 40.9356 -87.2497 299° West 155 178 4,000  Level Chicago Center
Mon 05:55:50 PM 40.9486 -87.3044 288° West 155 178 4,000  Level Chicago Center
Mon 05:56:52 PM 40.9578 -87.3722 280° West 155 178 4,000  Level Chicago Center
Mon 05:57:54 PM 40.9667 -87.4286 282° West 156 180 4,000  Level Chicago Center
Mon 05:58:57 PM 40.9744 -87.4844 280° West 156 180 4,000  Level Chicago Center
Mon 05:59:58 PM 40.9825 -87.5392 281° West 154 177 4,000  Level Chicago Center
Mon 06:01:00 PM 40.9908 -87.5947 281° West 154 177 4,000  Level Chicago Center
Mon 06:02:02 PM 40.9972 -87.6503 279° West 154 177 4,000  Level Chicago Center
Mon 06:03:04 PM 41.0039 -87.7161 278° West 153 176 4,000  Level Chicago Center
Mon 06:04:06 PM 41.0103 -87.7731 278° West 154 177 4,000  Level Chicago Center
Mon 06:05:09 PM 41.0161 -87.8289 278° West 154 177 4,000  Level Chicago Center
Mon 06:06:10 PM 41.0225 -87.8844 279° West 154 177 4,000  Level Chicago Center
Mon 06:07:12 PM 41.0400 -87.9339 295° West 153 176 4,000  Level Chicago Center
Mon 06:08:14 PM 41.0858 -87.9669 331° Northwest 156 180 4,000  Level Chicago Center
Mon 06:09:16 PM 41.1242 -87.9953 331° Northwest 157 181 4,000  Level Chicago Center
Mon 06:10:18 PM 41.1614 -88.0242 330° Northwest 157 181 4,000  Level Chicago Center
Mon 06:11:20 PM 41.1994 -88.0528 331° Northwest 157 181 4,000  Level Chicago Center
Mon 06:12:22 PM 41.2378 -88.0811 331° Northwest 157 181 4,000  Level Chicago Center
Mon 06:13:24 PM 41.2761 -88.1100 330° Northwest 158 182 4,000  Level Chicago Center
Mon 06:14:26 PM 41.3211 -88.1442 330° Northwest 155 178 4,000  Level Chicago Center
Mon 06:15:28 PM 41.3586 -88.1731 330° Northwest 155 178 4,000  Level Chicago Center
Mon 06:16:30 PM 41.3961 -88.2008 331° Northwest 154 177 4,000  Level Chicago Center
Mon 06:17:32 PM 41.4311 -88.2281 330° Northwest 153 176 4,000  Level Chicago Center
Mon 06:18:33 PM 41.4731 -88.2531 336° Northwest 157 181 4,000  Level Chicago Center
Mon 06:19:36 PM 41.5128 -88.2750 338° Northwest 155 178 4,000  Level Chicago Center
Mon 06:20:38 PM 41.5528 -88.2983 336° Northwest 157 181 4,000  Level Chicago Center
Mon 06:21:39 PM 41.6006 -88.3267 336° Northwest 157 181 4,000  Level Chicago Center
Mon 06:22:41 PM 41.6400 -88.3508 335° Northwest 157 181 4,000  Level Chicago Center
Mon 06:23:43 PM 41.6794 -88.3744 336° Northwest 156 180 4,000  Level Chicago Center
Mon 06:24:45 PM 41.7192 -88.3992 335° Northwest 157 181 4,000  Level Chicago Center
Mon 06:25:47 PM 41.7600 -88.4250 335° Northwest 160 184 4,000  Level Chicago Center
Mon 06:26:49 PM 41.8028 -88.4439 342° North 161 185 4,000  Level Chicago Center
Mon 06:27:51 PM 41.8553 -88.4603 347° North 162 186 4,000  Level Chicago Center
Mon 06:28:53 PM 41.8989 -88.4739 347° North 162 186 4,000  Level Chicago Center
Mon 06:29:55 PM 41.9419 -88.4872 347° North 161 185 4,000  Level Chicago Center
Mon 06:30:57 PM 41.9869 -88.4931 354° North 161 185 4,000  Level Chicago Center
Mon 06:31:59 PM 42.0322 -88.4903 North 161 185 4,000  Level Chicago Center
Mon 06:33:01 PM 42.0761 -88.4869 North 160 184 4,000  Level Chicago Center
Mon 06:34:03 PM 42.1158 -88.4425 40° Northeast 167 192 4,000  Level Chicago Center
Mon 06:35:05 PM 42.1417 -88.3894 57° Northeast 169 194 4,000  Level Chicago Center
Mon 06:36:07 PM 42.1669 -88.3342 58° Northeast 172 198 4,000  Level Chicago Center
Mon 06:37:09 PM 42.1917 -88.2822 57° Northeast 169 194 4,000  Level Chicago Center
Mon 06:38:11 PM 42.2164 -88.2289 58° Northeast 168 193 4,000 -290 Level Chicago Center
Mon 06:39:13 PM 42.2408 -88.1561 66° East 174 200 3,400 -484 Descending Chicago Center
Mon 06:40:15 PM 42.2550 -88.1036 70° East 174 200 3,000 -353 Descending Chicago Center
Mon 06:42:03 PM 42.2833 -88.0000 70° East 138 159 2,400 -179 Descending Chicago TRACON
Mon 06:43:03 PM 42.2500 -87.9833 160° South 130 150 2,500 67 Climbing Chicago TRACON
Mon 06:43:33 PM 42.2444 -87.9725 125° Southeast 126 145 2,500 -196 Level Chicago Center
Mon 06:44:35 PM 42.2019 -87.9503 159° South 135 155 2,200 -387 Descending Chicago Center
Mon 06:45:37 PM 42.1739 -87.9336 156° South 125 144 1,700 -484 Descending Chicago Center

Login

Don't have an account? Register now (free) for customized features, flight alerts, and more!